Time;durP1;ratioP1;P1;durP2;ratioP2;P2;SDS_P1;SDS_P2;PMS_P1;PMS_P2;Temp;Humidity;BMP_temperature;BMP_pressure;BME280_temperature;BME280_humidity;BME280_pressure;Samples;Min_cycle;Max_cycle;Signal;HPM_P1;HPM_P2
2022/08/25 00:01:32;;;;;;;1.97;1.70;;;26.40;47.30;;;;;;4944927;28;20485;-81
2022/08/25 00:04:03;;;;;;;1.53;1.30;;;26.40;48.30;;;;;;4953477;28;20473;-81
2022/08/25 00:06:32;;;;;;;1.50;1.40;;;26.40;48.10;;;;;;4954033;29;20444;-82
2022/08/25 00:09:00;;;;;;;1.97;1.50;;;26.40;49.10;;;;;;4950765;28;20995;-81
2022/08/25 00:11:30;;;;;;;4.23;1.70;;;26.40;49.90;;;;;;4953179;29;20471;-81
2022/08/25 00:14:02;;;;;;;2.63;1.80;;;26.30;48.00;;;;;;4953317;28;20483;-82
2022/08/25 00:16:31;;;;;;;2.00;1.90;;;26.30;48.00;;;;;;4953679;29;20517;-81
2022/08/25 00:19:05;;;;;;;1.60;1.50;;;26.30;48.60;;;;;;4953632;29;20515;-81
2022/08/25 00:21:33;;;;;;;1.70;1.60;;;26.30;48.50;;;;;;4953471;29;20874;-81
2022/08/25 00:24:03;;;;;;;1.67;1.57;;;26.20;49.90;;;;;;4952243;28;20468;-81
2022/08/25 00:26:31;;;;;;;1.87;1.77;;;26.20;48.30;;;;;;4941813;29;21195;-81
2022/08/25 00:28:59;;;;;;;1.70;1.60;;;26.20;50.30;;;;;;4953298;29;20460;-82
2022/08/25 00:31:29;;;;;;;1.80;1.70;;;26.20;50.60;;;;;;4953110;29;20971;-81
2022/08/25 00:34:09;;;;;;;1.53;1.43;;;26.20;50.80;;;;;;4952334;28;20486;-81
2022/08/25 00:36:38;;;;;;;1.60;1.50;;;26.20;49.30;;;;;;4953553;29;20471;-81
2022/08/25 00:39:07;;;;;;;1.67;1.57;;;26.20;49.70;;;;;;4953236;28;20460;-81
2022/08/25 00:41:37;;;;;;;1.50;1.40;;;26.10;50.10;;;;;;4949900;28;20460;-81
2022/08/25 00:44:07;;;;;;;1.67;1.50;;;26.10;50.50;;;;;;4949150;28;20475;-81
2022/08/25 00:46:40;;;;;;;2.40;1.70;;;26.10;49.70;;;;;;4952538;29;20986;-81
2022/08/25 00:49:14;;;;;;;2.07;1.60;;;26.10;50.10;;;;;;4952703;29;20469;-81
2022/08/25 00:51:58;;;;;;;1.57;1.47;;;26.10;50.70;;;;;;4951479;29;20460;-81
2022/08/25 00:54:30;;;;;;;2.20;2.00;;;26.10;50.40;;;;;;4952170;28;20471;-81
2022/08/25 00:57:00;;;;;;;1.83;1.73;;;26.10;51.30;;;;;;4944298;28;20932;-82
2022/08/25 00:59:29;;;;;;;2.83;2.00;;;26.10;51.60;;;;;;4943428;29;20441;-81
2022/08/25 01:01:57;;;;;;;1.80;1.60;;;26.10;52.50;;;;;;4936354;29;20463;-81
2022/08/25 01:04:27;;;;;;;1.80;1.70;;;26.10;51.70;;;;;;4952221;28;20919;-81
2022/08/25 01:06:57;;;;;;;1.77;1.63;;;26.10;52.70;;;;;;4952727;28;20947;-82
2022/08/25 01:09:26;;;;;;;1.87;1.77;;;26.00;51.60;;;;;;4952434;29;20463;-81
2022/08/25 01:11:54;;;;;;;1.83;1.73;;;26.10;51.20;;;;;;4952484;28;20458;-81
2022/08/25 01:14:24;;;;;;;1.60;1.40;;;26.10;54.60;;;;;;4952115;28;20979;-81
2022/08/25 01:16:53;;;;;;;1.50;1.40;;;26.00;52.50;;;;;;4952542;28;20448;-80
2022/08/25 01:19:22;;;;;;;1.70;1.60;;;26.00;52.80;;;;;;4952723;29;20681;-81
2022/08/25 01:21:53;;;;;;;2.17;1.70;;;26.00;55.30;;;;;;4952487;29;20456;-80
2022/08/25 01:24:30;;;;;;;2.03;1.93;;;26.00;53.00;;;;;;4951036;28;20486;-81
2022/08/25 01:26:58;;;;;;;1.73;1.63;;;26.00;54.20;;;;;;4951076;29;20460;-81
2022/08/25 01:29:27;;;;;;;2.10;1.90;;;26.00;54.40;;;;;;4952281;29;20463;-81
2022/08/25 01:31:58;;;;;;;1.90;1.80;;;26.00;52.90;;;;;;4952120;29;21030;-81
2022/08/25 01:34:27;;;;;;;1.47;1.37;;;25.90;53.40;;;;;;4951219;28;20542;-81
2022/08/25 01:36:58;;;;;;;1.80;1.70;;;25.90;54.10;;;;;;4952376;29;20467;-81
2022/08/25 01:39:27;;;;;;;2.13;1.93;;;25.90;54.40;;;;;;4952308;29;20470;-81
2022/08/25 01:42:13;;;;;;;2.17;1.97;;;25.90;54.30;;;;;;4952101;29;20887;-82
2022/08/25 01:44:44;;;;;;;2.37;1.90;;;25.90;55.20;;;;;;4951699;28;20631;-81
2022/08/25 01:47:13;;;;;;;2.03;1.83;;;25.90;53.90;;;;;;4952135;29;20486;-81
2022/08/25 01:49:41;;;;;;;2.03;1.83;;;25.80;55.80;;;;;;4950103;28;20460;-81
2022/08/25 01:52:16;;;;;;;2.20;2.00;;;25.80;55.60;;;;;;4951469;29;20460;-81
2022/08/25 01:54:45;;;;;;;2.73;1.77;;;25.80;55.10;;;;;;4946888;28;21217;-80
2022/08/25 01:57:13;;;;;;;1.90;1.60;;;25.70;56.90;;;;;;4951602;29;21191;-81
2022/08/25 01:59:41;;;;;;;2.00;1.90;;;25.70;57.90;;;;;;4949875;29;20452;-81
2022/08/25 02:02:09;;;;;;;2.07;1.87;;;25.70;57.00;;;;;;4950421;29;20459;-81
2022/08/25 02:04:38;;;;;;;2.40;2.20;;;25.70;57.60;;;;;;4951543;28;20472;-81
2022/08/25 02:07:15;;;;;;;2.13;2.00;;;25.70;58.20;;;;;;4951502;29;20559;-81
2022/08/25 02:09:44;;;;;;;2.47;2.27;;;25.60;58.80;;;;;;4951831;29;20467;-81
2022/08/25 02:12:12;;;;;;;2.10;1.90;;;25.60;57.50;;;;;;4952724;29;20457;-80
2022/08/25 02:14:40;;;;;;;2.13;1.93;;;25.60;59.70;;;;;;4952060;28;20946;-81
2022/08/25 02:17:09;;;;;;;2.30;2.10;;;25.50;60.20;;;;;;4952165;28;20546;-81
2022/08/25 02:19:37;;;;;;;2.80;1.97;;;25.60;60.50;;;;;;4952261;28;20456;-81
2022/08/25 02:22:05;;;;;;;3.77;2.93;;;25.50;59.80;;;;;;4952080;29;20444;-81
2022/08/25 02:24:35;;;;;;;3.50;2.40;;;25.50;60.80;;;;;;4944972;28;20479;-81
2022/08/25 02:27:03;;;;;;;2.30;2.10;;;25.50;61.40;;;;;;4933177;29;20512;-81
2022/08/25 02:29:32;;;;;;;5.77;2.43;;;25.50;60.80;;;;;;4938572;29;20460;-81
2022/08/25 02:32:00;;;;;;;2.30;2.10;;;25.50;61.40;;;;;;4952117;29;20492;-82
2022/08/25 02:34:29;;;;;;;2.40;2.20;;;25.40;61.80;;;;;;4952096;28;20472;-81
2022/08/25 02:36:57;;;;;;;2.23;2.13;;;25.40;61.90;;;;;;4952838;29;20889;-81
2022/08/25 02:39:25;;;;;;;2.20;2.00;;;25.40;62.10;;;;;;4952596;29;20541;-81
2022/08/25 02:41:55;;;;;;;2.27;2.07;;;25.40;62.10;;;;;;4951576;29;20527;-81
2022/08/25 02:44:23;;;;;;;2.50;2.30;;;25.40;60.70;;;;;;4951783;28;20512;-82
2022/08/25 02:46:51;;;;;;;2.00;1.80;;;25.30;79.10;;;;;;4952421;29;20461;-82
2022/08/25 02:49:19;;;;;;;2.00;1.80;;;25.30;60.00;;;;;;4952228;28;20967;-81
2022/08/25 02:51:47;;;;;;;2.43;2.23;;;25.20;58.00;;;;;;4952319;29;20524;-81
2022/08/25 02:54:15;;;;;;;2.67;2.30;;;25.20;58.80;;;;;;4945382;29;20475;-81
2022/08/25 02:56:43;;;;;;;2.30;2.10;;;25.10;58.60;;;;;;4951207;29;20519;-81
2022/08/25 02:59:13;;;;;;;2.20;2.00;;;25.00;75.60;;;;;;4951573;28;20940;-80
2022/08/25 03:01:41;;;;;;;2.27;2.17;;;25.00;58.20;;;;;;4950900;29;20456;-81
2022/08/25 03:04:09;;;;;;;2.33;1.93;;;24.90;57.80;;;;;;4952818;28;20476;-81
2022/08/25 03:06:38;;;;;;;2.30;2.10;;;24.90;55.70;;;;;;4956130;29;20464;-81
2022/08/25 03:09:07;;;;;;;1.90;1.80;;;24.80;57.30;;;;;;4956148;29;20467;-81
2022/08/25 03:11:37;;;;;;;2.10;1.90;;;24.80;57.50;;;;;;4954145;29;20479;-81
2022/08/25 03:14:05;;;;;;;2.43;2.23;;;24.70;58.20;;;;;;4954506;28;20484;-81
2022/08/25 03:16:35;;;;;;;2.10;1.90;;;24.70;56.90;;;;;;4955551;29;20462;-81
2022/08/25 03:19:04;;;;;;;2.00;1.90;;;24.70;57.60;;;;;;4956117;28;20468;-81
2022/08/25 03:21:32;;;;;;;2.20;2.00;;;24.70;57.10;;;;;;4954626;29;20462;-81
2022/08/25 03:24:01;;;;;;;2.00;1.90;;;24.70;57.70;;;;;;4953946;28;20912;-81
2022/08/25 03:29:15;;;;;;;2.13;1.93;;;24.60;55.90;;;;;;4956014;28;20542;-81
2022/08/25 03:31:44;;;;;;;1.80;1.70;;;24.50;57.00;;;;;;4954612;28;20562;-81
2022/08/25 03:34:15;;;;;;;3.03;2.27;;;24.50;56.80;;;;;;4943429;28;20492;-81
2022/08/25 03:36:45;;;;;;;2.27;2.17;;;24.50;53.20;;;;;;4936946;29;20484;-81
2022/08/25 03:39:13;;;;;;;2.80;2.27;;;24.40;53.80;;;;;;4936975;29;20470;-81
2022/08/25 03:41:41;;;;;;;1.80;1.70;;;24.40;54.70;;;;;;4942529;29;20463;-81
2022/08/25 03:44:10;;;;;;;2.70;2.50;;;24.30;55.30;;;;;;4955616;28;20539;-81
2022/08/25 03:46:40;;;;;;;2.27;2.07;;;24.30;54.70;;;;;;4955938;29;20455;-81
2022/08/25 03:49:13;;;;;;;1.80;1.70;;;24.30;55.20;;;;;;4949315;29;20964;-81
2022/08/25 03:51:45;;;;;;;4.23;2.10;;;24.30;55.20;;;;;;4957676;29;20495;-81
2022/08/25 03:54:15;;;;;;;1.80;1.70;;;24.30;55.00;;;;;;4939998;29;20559;-81
2022/08/25 03:56:44;;;;;;;2.30;2.10;;;24.30;55.70;;;;;;4941814;29;20460;-81
2022/08/25 03:59:12;;;;;;;2.57;2.30;;;24.20;58.10;;;;;;4953699;28;20448;-82
2022/08/25 04:01:42;;;;;;;2.53;1.90;;;24.30;56.20;;;;;;4944663;29;20459;-81
2022/08/25 04:04:14;;;;;;;2.27;1.97;;;24.20;54.90;;;;;;4940179;28;20472;-81
2022/08/25 04:06:44;;;;;;;2.13;1.93;;;24.10;54.30;;;;;;4951363;28;20811;-81
2022/08/25 04:09:12;;;;;;;2.03;1.93;;;24.10;71.70;;;;;;4948082;29;20998;-81
2022/08/25 04:11:41;;;;;;;2.30;2.10;;;24.10;54.60;;;;;;4951462;29;20533;-81
2022/08/25 04:14:09;;;;;;;2.10;2.00;;;24.10;54.70;;;;;;4939197;29;20471;-81
2022/08/25 04:16:44;;;;;;;3.47;3.17;;;24.00;55.80;;;;;;4951661;28;20471;-81
2022/08/25 04:19:14;;;;;;;2.90;2.20;;;24.00;55.50;;;;;;4953013;29;20447;-81
2022/08/25 04:21:42;;;;;;;2.40;1.90;;;24.00;55.60;;;;;;4953425;28;20460;-81
2022/08/25 04:24:12;;;;;;;2.40;2.20;;;24.00;56.40;;;;;;4941611;29;20895;-82
2022/08/25 04:26:43;;;;;;;2.33;2.13;;;23.90;55.70;;;;;;4952668;28;20987;-81
2022/08/25 04:29:13;;;;;;;2.43;2.23;;;23.90;56.90;;;;;;4952656;29;20458;-82
2022/08/25 04:31:45;;;;;;;2.47;2.27;;;23.90;56.00;;;;;;4952919;28;20846;-82
2022/08/25 04:34:17;;;;;;;2.93;2.40;;;23.90;56.00;;;;;;4952218;28;20795;-82
2022/08/25 04:36:59;;;;;;;3.10;2.83;;;23.90;57.50;;;;;;4953026;28;20467;-82
2022/08/25 04:39:27;;;;;;;2.13;1.93;;;23.90;55.60;;;;;;4951874;29;20463;-82
2022/08/25 04:41:56;;;;;;;2.70;2.50;;;23.90;58.70;;;;;;4952809;28;21006;-82
2022/08/25 04:44:24;;;;;;;2.47;1.90;;;23.80;57.90;;;;;;4952782;28;20494;-82
2022/08/25 04:46:52;;;;;;;4.03;2.17;;;23.80;57.90;;;;;;4952244;29;20466;-82
2022/08/25 04:49:22;;;;;;;2.60;2.40;;;23.80;58.90;;;;;;4952555;28;20460;-82
2022/08/25 04:51:50;;;;;;;3.67;2.70;;;23.70;60.20;;;;;;4951819;29;20991;-82
2022/08/25 04:54:20;;;;;;;2.07;1.97;;;23.70;58.90;;;;;;4951964;28;20479;-81
2022/08/25 04:56:49;;;;;;;2.93;2.73;;;23.70;59.50;;;;;;4951520;28;20463;-81
2022/08/25 04:59:21;;;;;;;3.17;2.43;;;23.70;58.20;;;;;;4952512;28;20452;-82
2022/08/25 05:01:49;;;;;;;2.20;2.00;;;23.70;59.60;;;;;;4952526;28;20448;-81
2022/08/25 05:04:24;;;;;;;2.67;2.47;;;23.70;61.00;;;;;;4952182;28;20480;-82
2022/08/25 05:06:56;;;;;;;2.33;2.03;;;23.60;59.50;;;;;;4952428;29;20897;-82
2022/08/25 05:09:24;;;;;;;2.67;2.47;;;23.70;62.30;;;;;;4952451;28;20456;-81
2022/08/25 05:11:52;;;;;;;2.60;2.40;;;23.70;61.90;;;;;;4951597;28;20475;-82
2022/08/25 05:14:25;;;;;;;3.37;2.73;;;23.70;62.70;;;;;;4951664;28;20471;-82
2022/08/25 05:16:54;;;;;;;3.20;2.73;;;23.70;60.00;;;;;;4952234;29;20463;-82
2022/08/25 05:19:25;;;;;;;3.00;2.80;;;23.70;62.00;;;;;;4940383;29;20943;-82
2022/08/25 05:21:53;;;;;;;2.83;2.53;;;23.60;65.70;;;;;;4952122;29;20462;-82
2022/08/25 05:24:25;;;;;;;2.63;2.43;;;23.70;66.30;;;;;;4950426;28;20477;-82
2022/08/25 05:26:54;;;;;;;2.60;2.27;;;23.70;64.90;;;;;;4951362;28;20890;-82
2022/08/25 05:29:22;;;;;;;2.27;2.07;;;23.70;65.90;;;;;;4951993;29;20474;-83
2022/08/25 05:31:50;;;;;;;3.27;2.97;;;23.70;68.40;;;;;;4946053;28;20830;-81
2022/08/25 05:34:19;;;;;;;2.40;2.30;;;23.70;70.20;;;;;;4951235;28;20490;-82
2022/08/25 05:36:49;;;;;;;2.90;2.70;;;23.70;67.40;;;;;;4952217;28;20805;-81
2022/08/25 05:39:18;;;;;;;3.50;3.23;;;23.70;88.30;;;;;;4951885;28;20463;-82
2022/08/25 05:41:46;;;;;;;3.30;3.00;;;23.70;73.30;;;;;;4952442;28;20470;-82
2022/08/25 05:44:15;;;;;;;5.53;4.20;;;23.80;73.20;;;;;;4951135;28;20546;-82
2022/08/25 05:46:48;;;;;;;4.30;3.90;;;23.80;74.40;;;;;;4951514;28;20853;-81
2022/08/25 05:49:16;;;;;;;5.47;3.77;;;23.90;72.30;;;;;;4951009;28;20459;-82
2022/08/25 05:51:44;;;;;;;5.23;3.00;;;23.90;76.30;;;;;;4948116;29;20505;-81
2022/08/25 05:54:14;;;;;;;3.20;2.90;;;23.90;77.00;;;;;;4951046;28;20510;-82
2022/08/25 05:56:44;;;;;;;3.87;3.57;;;24.00;75.80;;;;;;4951279;28;21024;-82
2022/08/25 05:59:12;;;;;;;3.67;3.30;;;24.00;76.50;;;;;;4951634;29;20464;-81
2022/08/25 06:04:25;;;;;;;3.53;3.00;;;24.00;79.70;;;;;;4951031;28;20547;-80
2022/08/25 06:06:54;;;;;;;4.10;3.70;;;24.00;81.00;;;;;;4951203;29;20463;-82
2022/08/25 06:09:24;;;;;;;3.93;3.30;;;24.10;81.10;;;;;;4951398;29;20463;-81
2022/08/25 06:11:53;;;;;;;4.10;3.20;;;24.20;84.60;;;;;;4950030;28;20464;-82
2022/08/25 06:14:23;;;;;;;4.77;2.93;;;24.30;84.10;;;;;;4951569;28;20498;-82
2022/08/25 06:16:52;;;;;;;3.30;3.00;;;24.40;83.50;;;;;;4951851;28;20466;-82
2022/08/25 06:19:21;;;;;;;3.70;3.40;;;24.50;85.50;;;;;;4951383;29;20455;-82
2022/08/25 06:21:53;;;;;;;4.83;3.80;;;24.50;85.00;;;;;;4951004;28;20908;-82
2022/08/25 06:24:24;;;;;;;3.97;2.33;;;24.60;84.70;;;;;;4949164;28;20468;-82
2022/08/25 06:26:52;;;;;;;3.33;2.67;;;24.70;86.60;;;;;;4951825;29;20455;-83
2022/08/25 06:29:21;;;;;;;3.23;2.70;;;24.80;88.40;;;;;;4951563;28;20470;-82
2022/08/25 06:31:49;;;;;;;3.63;3.33;;;25.00;87.30;;;;;;4951384;29;20458;-81
2022/08/25 06:34:18;;;;;;;2.80;2.60;;;25.10;91.50;;;;;;4950673;28;20488;-82
2022/08/25 06:36:50;;;;;;;2.87;2.67;;;25.20;90.80;;;;;;4951545;29;20459;-81
2022/08/25 06:39:19;;;;;;;3.23;2.93;;;25.40;91.10;;;;;;4947437;28;20457;-83
2022/08/25 06:41:52;;;;;;;3.40;3.07;;;25.50;92.80;;;;;;4936025;29;20515;-82
2022/08/25 06:44:21;;;;;;;5.33;2.90;;;25.60;91.50;;;;;;4935566;29;20988;-82
2022/08/25 06:46:50;;;;;;;4.13;2.80;;;25.70;92.10;;;;;;4936061;29;20449;-83
2022/08/25 06:49:18;;;;;;;5.30;3.80;;;25.80;93.20;;;;;;4937166;29;20467;-81
2022/08/25 06:51:46;;;;;;;3.43;3.10;;;25.90;94.30;;;;;;4954537;28;21010;-82
2022/08/25 06:54:14;;;;;;;4.17;3.27;;;26.00;95.00;;;;;;4954632;28;21345;-81
2022/08/25 06:56:43;;;;;;;3.87;2.77;;;26.10;95.40;;;;;;4950171;29;20463;-82
2022/08/25 06:59:13;;;;;;;3.03;2.77;;;26.20;95.70;;;;;;4935994;29;20471;-82
2022/08/25 07:01:42;;;;;;;3.87;3.23;;;26.30;95.00;;;;;;4950402;29;20463;-82
2022/08/25 07:04:11;;;;;;;2.67;2.47;;;26.40;96.70;;;;;;4954436;28;20471;-82
2022/08/25 07:06:40;;;;;;;2.87;2.60;;;26.50;97.10;;;;;;4953608;29;20452;-82
2022/08/25 07:09:10;;;;;;;3.47;3.00;;;26.50;96.20;;;;;;4954829;29;20455;-83
2022/08/25 07:11:39;;;;;;;3.83;3.17;;;26.70;97.10;;;;;;4954413;29;20460;-83
2022/08/25 07:14:10;;;;;;;3.00;2.70;;;26.80;97.50;;;;;;4939288;29;20496;-82
2022/08/25 07:16:41;;;;;;;2.60;2.40;;;26.80;97.60;;;;;;4953522;29;20490;-83
2022/08/25 07:19:19;;;;;;;3.67;3.37;;;27.00;98.40;;;;;;4954611;29;20467;-82
2022/08/25 07:21:50;;;;;;;4.20;3.80;;;27.10;98.50;;;;;;4954807;29;20495;-81
2022/08/25 07:24:19;;;;;;;3.70;3.03;;;27.30;97.50;;;;;;4952406;28;20475;-83
2022/08/25 07:26:48;;;;;;;3.77;3.47;;;27.50;98.10;;;;;;4954359;29;21042;-83
2022/08/25 07:29:18;;;;;;;2.73;2.53;;;27.80;98.30;;;;;;4953878;28;20464;-82
2022/08/25 07:31:48;;;;;;;3.50;3.20;;;27.90;98.50;;;;;;4954266;28;21022;-82
2022/08/25 07:37:05;;;;;;;3.00;2.80;;;28.00;98.80;;;;;;4952730;28;20952;-82
2022/08/25 07:39:34;;;;;;;2.97;2.77;;;28.00;98.80;;;;;;4954745;28;20464;-82
2022/08/25 07:42:03;;;;;;;4.43;3.33;;;27.90;99.10;;;;;;4953120;29;20467;-82
2022/08/25 07:44:38;;;;;;;3.53;3.30;;;27.90;99.90;;;;;;4952237;28;20484;-82
2022/08/25 07:47:11;;;;;;;3.70;3.40;;;27.90;97.40;;;;;;4946266;29;20523;-82
2022/08/25 07:49:39;;;;;;;3.17;2.87;;;27.90;98.40;;;;;;4941559;29;20457;-82
2022/08/25 07:52:08;;;;;;;3.50;3.10;;;28.00;98.50;;;;;;4945648;29;20464;-83
2022/08/25 07:54:36;;;;;;;3.00;2.77;;;28.00;97.60;;;;;;4953640;28;20491;-83
2022/08/25 07:57:07;;;;;;;3.37;3.07;;;28.00;97.00;;;;;;4934709;29;20457;-82
2022/08/25 07:59:40;;;;;;;3.70;3.17;;;28.00;97.10;;;;;;4934439;29;20826;-83
2022/08/25 08:02:11;;;;;;;3.97;3.67;;;28.00;95.10;;;;;;4933413;29;20460;-82
2022/08/25 08:04:48;;;;;;;3.70;3.40;;;27.80;95.10;;;;;;4936824;29;20476;-82
2022/08/25 08:07:18;;;;;;;4.17;3.00;;;27.80;94.90;;;;;;4944078;29;20506;-83
2022/08/25 08:09:47;;;;;;;4.60;3.70;;;27.80;94.80;;;;;;4953369;29;20452;-82
2022/08/25 08:12:23;;;;;;;3.77;3.47;;;27.80;94.70;;;;;;4953218;28;20462;-82
2022/08/25 08:14:52;;;;;;;3.73;3.43;;;27.80;94.40;;;;;;4951545;28;20519;-82
2022/08/25 08:17:22;;;;;;;3.20;2.90;;;27.80;95.00;;;;;;4953797;29;20511;-83
2022/08/25 08:19:50;;;;;;;5.83;3.27;;;27.80;94.70;;;;;;4953637;29;20493;-82
2022/08/25 08:22:19;;;;;;;7.20;3.10;;;27.80;95.20;;;;;;4952950;29;20952;-82
2022/08/25 08:24:47;;;;;;;3.50;3.20;;;27.80;95.40;;;;;;4951407;28;20480;-82
2022/08/25 08:27:24;;;;;;;3.50;3.20;;;27.80;94.50;;;;;;4953119;28;20478;-82
2022/08/25 08:29:53;;;;;;;3.70;3.00;;;27.80;94.10;;;;;;4953210;29;20491;-82
2022/08/25 08:32:25;;;;;;;4.00;3.70;;;27.80;94.60;;;;;;4953255;28;20491;-80
2022/08/25 08:35:14;;;;;;;3.07;2.80;;;27.80;95.80;;;;;;4952555;28;20488;-82
2022/08/25 08:37:42;;;;;;;3.97;3.40;;;27.90;96.00;;;;;;4950301;29;20461;-82
2022/08/25 08:40:12;;;;;;;4.17;3.50;;;27.80;95.60;;;;;;4934259;29;20469;-82
2022/08/25 08:42:53;;;;;;;3.70;3.40;;;27.80;94.30;;;;;;4937015;28;20959;-82
2022/08/25 08:45:34;;;;;;;3.60;3.30;;;27.90;95.10;;;;;;4952258;28;20468;-82
2022/08/25 08:48:46;;;;;;;3.57;3.27;;;27.90;95.60;;;;;;4949472;29;20451;-82
2022/08/25 08:51:20;;;;;;;3.50;2.97;;;28.00;95.90;;;;;;4953180;29;20456;-81
2022/08/25 08:53:55;;;;;;;3.10;2.90;;;28.10;96.60;;;;;;4951027;28;20586;-83
2022/08/25 08:56:28;;;;;;;3.13;2.93;;;28.10;96.60;;;;;;4935219;29;20465;-82
2022/08/25 08:59:01;;;;;;;3.03;2.83;;;28.20;96.50;;;;;;4933645;29;20480;-83
2022/08/25 09:01:41;;;;;;;3.83;3.40;;;28.20;96.40;;;;;;4932233;29;20460;-82
2022/08/25 09:04:15;;;;;;;3.23;2.53;;;28.30;96.20;;;;;;4932867;29;20567;-82
2022/08/25 09:06:49;;;;;;;3.00;2.80;;;28.30;95.20;;;;;;4933278;29;20452;-83
2022/08/25 09:09:25;;;;;;;4.10;3.70;;;28.30;96.10;;;;;;4946982;29;20778;-82
2022/08/25 09:12:02;;;;;;;3.63;2.90;;;28.30;96.00;;;;;;4947666;29;20485;-81
2022/08/25 09:14:41;;;;;;;2.57;2.37;;;28.40;95.40;;;;;;4935739;29;20567;-82
2022/08/25 09:17:18;;;;;;;2.97;2.70;;;28.40;94.30;;;;;;4952468;29;20464;-82
2022/08/25 09:20:31;;;;;;;3.50;3.20;;;28.40;94.80;;;;;;4952352;29;20495;-82
2022/08/25 09:23:10;;;;;;;3.73;3.43;;;28.40;94.80;;;;;;4927758;29;20480;-83
2022/08/25 09:25:47;;;;;;;3.50;3.20;;;28.50;94.80;;;;;;4931835;29;20485;-82
2022/08/25 09:28:25;;;;;;;3.13;2.83;;;28.50;95.50;;;;;;4940860;28;20977;-83
2022/08/25 09:30:58;;;;;;;3.50;3.03;;;28.50;96.10;;;;;;4939420;29;20460;-82
2022/08/25 09:33:30;;;;;;;4.07;3.13;;;28.60;94.70;;;;;;4952042;28;20452;-82
2022/08/25 09:36:05;;;;;;;3.30;3.10;;;28.50;92.10;;;;;;4951883;29;20483;-81
2022/08/25 09:38:36;;;;;;;3.77;3.47;;;28.50;92.40;;;;;;4952306;29;20463;-83
2022/08/25 09:41:06;;;;;;;4.03;3.73;;;28.40;93.40;;;;;;4952198;29;20460;-82
2022/08/25 09:43:41;;;;;;;3.17;2.97;;;28.40;92.00;;;;;;4951985;28;20577;-82
2022/08/25 09:46:12;;;;;;;3.20;3.00;;;28.50;92.20;;;;;;4947496;28;20540;-82
2022/08/25 09:48:46;;;;;;;4.10;3.80;;;28.50;93.70;;;;;;4941020;29;20479;-83
2022/08/25 09:51:27;;;;;;;3.20;2.90;;;28.50;94.20;;;;;;4946016;29;20444;-82
2022/08/25 09:54:18;;;;;;;3.47;3.17;;;28.60;92.00;;;;;;4943428;28;20483;-82
2022/08/25 09:56:52;;;;;;;2.87;2.67;;;28.50;92.00;;;;;;4951752;28;20471;-83
2022/08/25 09:59:23;;;;;;;3.47;3.17;;;28.50;92.60;;;;;;4952160;29;20460;-83
2022/08/25 10:02:06;;;;;;;3.97;3.67;;;28.60;92.20;;;;;;4952363;29;21126;-81
2022/08/25 10:04:36;;;;;;;2.90;2.70;;;28.50;99.90;;;;;;4931784;29;20480;-83
2022/08/25 10:07:25;;;;;;;3.60;3.30;;;28.40;92.00;;;;;;4933306;29;20868;-82
2022/08/25 10:09:56;;;;;;;3.73;3.27;;;28.40;91.60;;;;;;4951084;29;20455;-82
2022/08/25 10:12:30;;;;;;;3.00;2.80;;;28.50;92.20;;;;;;4951999;28;20460;-82
2022/08/25 10:14:58;;;;;;;4.33;2.90;;;28.50;92.80;;;;;;4955170;28;20554;-82
2022/08/25 10:17:29;;;;;;;3.57;3.27;;;28.70;94.40;;;;;;4961126;28;20490;-83
2022/08/25 10:20:16;;;;;;;3.73;3.43;;;28.80;93.50;;;;;;4955718;28;20460;-83
2022/08/25 10:22:47;;;;;;;3.27;3.00;;;28.80;93.20;;;;;;4956948;28;20487;-82
2022/08/25 10:25:24;;;;;;;2.83;2.63;;;28.90;94.70;;;;;;4952619;28;20504;-82
2022/08/25 10:28:03;;;;;;;4.70;2.57;;;28.90;91.80;;;;;;4954062;29;20466;-82
2022/08/25 10:30:44;;;;;;;3.67;3.40;;;28.90;92.40;;;;;;4955360;29;20462;-82
2022/08/25 10:33:22;;;;;;;2.83;2.60;;;29.00;93.80;;;;;;4954847;29;20523;-82
2022/08/25 10:35:57;;;;;;;2.70;2.50;;;29.00;91.90;;;;;;4955460;28;20532;-83
2022/08/25 10:38:42;;;;;;;3.33;3.03;;;28.90;91.10;;;;;;4945739;28;20982;-82
2022/08/25 10:41:29;;;;;;;4.40;2.63;;;29.00;91.50;;;;;;4934712;29;20480;-83
2022/08/25 10:45:41;;;;;;;2.23;2.03;;;29.00;91.00;;;;;;4950354;28;20542;-83
2022/08/25 10:47:11;;;;;;;3.30;3.00;;;29.00;91.00;;;;;;4949731;29;20550;-83
2022/08/25 10:49:46;;;;;;;2.57;2.37;;;29.00;89.60;;;;;;4954566;29;20871;-82
2022/08/25 10:52:23;;;;;;;3.30;3.10;;;29.00;91.10;;;;;;4954814;28;20452;-83
2022/08/25 10:55:07;;;;;;;3.70;2.03;;;29.10;92.00;;;;;;4942873;28;20496;-82
2022/08/25 10:57:44;;;;;;;4.93;3.60;;;29.20;92.90;;;;;;4940838;29;20715;-82
2022/08/25 11:00:15;;;;;;;3.00;2.70;;;29.20;92.20;;;;;;4954949;29;20457;-83
2022/08/25 11:03:03;;;;;;;2.93;2.53;;;29.30;92.50;;;;;;4955130;29;20471;-83
2022/08/25 11:05:39;;;;;;;3.27;3.07;;;29.30;90.10;;;;;;4954473;28;20491;-82
2022/08/25 11:08:14;;;;;;;2.70;2.50;;;29.30;91.20;;;;;;4953806;28;20811;-83
2022/08/25 11:10:48;;;;;;;3.77;3.17;;;29.30;91.40;;;;;;4952901;29;20513;-83
2022/08/25 11:13:38;;;;;;;4.40;3.50;;;29.30;91.20;;;;;;4937832;29;20487;-83
2022/08/25 11:16:12;;;;;;;3.57;3.30;;;29.30;90.50;;;;;;4934657;29;20895;-82
2022/08/25 11:18:56;;;;;;;2.90;2.70;;;29.20;90.80;;;;;;4934692;29;20535;-83
2022/08/25 11:21:32;;;;;;;2.50;2.27;;;29.30;91.20;;;;;;4947929;28;20852;-83
2022/08/25 11:24:13;;;;;;;2.63;2.43;;;29.30;91.30;;;;;;4952377;28;20535;-83
2022/08/25 11:26:47;;;;;;;2.70;2.50;;;29.40;90.30;;;;;;4952313;28;20831;-83
2022/08/25 11:29:19;;;;;;;2.97;2.77;;;29.40;89.90;;;;;;4937385;28;20539;-83
2022/08/25 11:31:51;;;;;;;2.47;2.27;;;29.40;87.90;;;;;;4952489;29;20828;-82
2022/08/25 11:34:22;;;;;;;2.30;1.80;;;29.50;88.20;;;;;;4953669;28;20527;-83
2022/08/25 11:36:53;;;;;;;2.73;2.27;;;29.50;89.60;;;;;;4953833;28;20955;-82
2022/08/25 11:39:37;;;;;;;2.37;2.17;;;29.50;89.00;;;;;;4953161;29;20452;-83
2022/08/25 11:42:21;;;;;;;2.60;2.40;;;29.50;85.70;;;;;;4953625;29;20460;-82
2022/08/25 11:45:06;;;;;;;2.73;2.57;;;29.50;86.40;;;;;;4951313;28;20579;-83
2022/08/25 11:47:56;;;;;;;2.30;2.20;;;29.50;89.80;;;;;;4950577;28;20507;-83
2022/08/25 11:50:30;;;;;;;3.00;2.83;;;29.60;91.70;;;;;;4949164;29;20444;-82
2022/08/25 11:53:02;;;;;;;4.67;3.20;;;29.70;92.70;;;;;;4953028;28;20454;-83
2022/08/25 11:55:49;;;;;;;2.67;2.47;;;30.00;92.50;;;;;;4952757;28;20492;-82
2022/08/25 11:58:33;;;;;;;5.30;2.17;;;29.80;92.30;;;;;;4952912;28;20558;-83
2022/08/25 12:01:02;;;;;;;2.97;2.77;;;29.90;92.10;;;;;;4953669;28;20479;-82
2022/08/25 12:03:53;;;;;;;3.03;2.83;;;30.00;93.20;;;;;;4943321;28;20777;-83
2022/08/25 12:06:28;;;;;;;2.83;2.27;;;30.00;91.70;;;;;;4954346;28;20574;-82
2022/08/25 12:09:19;;;;;;;2.93;2.33;;;30.10;91.00;;;;;;4952445;29;20460;-82
2022/08/25 12:11:53;;;;;;;2.63;2.43;;;30.10;91.40;;;;;;4943435;28;20941;-83
2022/08/25 12:14:43;;;;;;;3.70;2.13;;;30.10;92.40;;;;;;4953165;28;20492;-82
2022/08/25 12:17:37;;;;;;;2.10;2.00;;;30.10;91.90;;;;;;4953406;29;20846;-83
2022/08/25 12:20:07;;;;;;;2.70;2.50;;;30.20;93.10;;;;;;4949118;29;20858;-84
2022/08/25 12:22:50;;;;;;;2.23;2.10;;;30.30;94.40;;;;;;4953659;28;20447;-83
2022/08/25 12:25:44;;;;;;;2.67;2.47;;;30.30;91.50;;;;;;4951558;28;20563;-83
2022/08/25 12:28:37;;;;;;;2.37;2.20;;;30.30;91.00;;;;;;4934199;29;20469;-82
2022/08/25 12:31:17;;;;;;;3.70;2.40;;;30.30;91.70;;;;;;4928930;29;20477;-84
2022/08/25 12:34:01;;;;;;;1.90;1.80;;;30.40;91.80;;;;;;4934974;29;20563;-82
2022/08/25 12:36:31;;;;;;;2.37;2.20;;;30.40;92.10;;;;;;4952729;28;20563;-82
2022/08/25 12:39:18;;;;;;;2.20;2.00;;;30.40;90.30;;;;;;4953086;29;20551;-82
2022/08/25 12:41:56;;;;;;;1.80;1.70;;;30.40;85.20;;;;;;4952814;29;20459;-83
2022/08/25 12:44:39;;;;;;;2.87;2.23;;;30.40;85.20;;;;;;4950965;28;21217;-82
2022/08/25 12:47:27;;;;;;;1.73;1.63;;;30.40;81.50;;;;;;4944626;29;20444;-83
2022/08/25 12:50:31;;;;;;;1.90;1.67;;;30.40;82.40;;;;;;4946003;28;20468;-82
2022/08/25 12:53:10;;;;;;;2.63;2.43;;;30.50;84.30;;;;;;4942388;29;20980;-83
2022/08/25 12:55:44;;;;;;;1.90;1.80;;;30.50;84.00;;;;;;4933541;29;20480;-82
2022/08/25 12:58:12;;;;;;;2.23;2.03;;;30.50;88.30;;;;;;4933544;29;20488;-83
2022/08/25 13:00:57;;;;;;;2.40;2.20;;;30.50;89.00;;;;;;4944171;28;20468;-83
2022/08/25 13:03:55;;;;;;;2.27;1.80;;;30.60;89.10;;;;;;4952560;28;20479;-82
2022/08/25 13:06:47;;;;;;;2.80;2.40;;;30.60;88.60;;;;;;4952367;28;20915;-82
2022/08/25 13:10:09;;;;;;;2.87;2.20;;;30.60;89.00;;;;;;4951515;28;20463;-83
2022/08/25 13:12:42;;;;;;;2.53;1.80;;;30.60;88.10;;;;;;4932971;29;20461;-83
2022/08/25 13:15:14;;;;;;;2.00;1.90;;;30.70;87.50;;;;;;4942476;29;20980;-83
2022/08/25 13:17:42;;;;;;;2.30;1.80;;;30.60;89.40;;;;;;4952367;28;20567;-82
2022/08/25 13:20:22;;;;;;;2.17;2.07;;;30.70;88.60;;;;;;4952108;29;20460;-82
2022/08/25 13:22:53;;;;;;;1.37;1.27;;;30.70;84.90;;;;;;4951806;29;20488;-83
2022/08/25 13:25:27;;;;;;;2.10;1.93;;;30.70;85.30;;;;;;4948905;28;20491;-84
2022/08/25 13:28:03;;;;;;;2.40;2.20;;;30.80;85.90;;;;;;4947119;28;21054;-82